createdAt,value
2019-02-25T00:03:10.780Z,-2.49
2019-02-25T00:07:12.709Z,-2.55
2019-02-25T00:11:15.993Z,-2.58
2019-02-25T00:15:17.908Z,-2.59
2019-02-25T00:19:19.852Z,-2.62
2019-02-25T00:23:21.769Z,-2.69
2019-02-25T00:27:23.680Z,-2.74
2019-02-25T00:31:25.591Z,-2.77
2019-02-25T00:35:27.507Z,-2.77
2019-02-25T00:39:29.420Z,-2.76
2019-02-25T00:43:31.336Z,-3.17
2019-02-25T00:47:33.253Z,-2.83
2019-02-25T00:51:36.130Z,-2.82
2019-02-25T00:55:38.044Z,-2.83
2019-02-25T00:59:40.334Z,-2.89
2019-02-25T01:03:42.254Z,-2.91
2019-02-25T01:07:44.191Z,-2.88
2019-02-25T01:11:46.096Z,-2.93
2019-02-25T01:15:48.005Z,-2.97
2019-02-25T01:19:49.928Z,-2.99
2019-02-25T01:23:51.889Z,-2.96
2019-02-25T01:27:53.812Z,-2.99
2019-02-25T01:31:55.736Z,-3.03
2019-02-25T01:35:57.674Z,-3.06
2019-02-25T01:40:00.542Z,-3.07
2019-02-25T01:44:04.109Z,-3.07
2019-02-25T01:48:06.033Z,-3.09
2019-02-25T01:52:07.940Z,-3.12
2019-02-25T01:56:09.858Z,-3.07
2019-02-25T02:00:16.186Z,-3.12
2019-02-25T02:04:18.187Z,-3.14
2019-02-25T02:08:20.123Z,-3.17
2019-02-25T02:12:22.026Z,-3.21
2019-02-25T02:16:23.955Z,-3.24
2019-02-25T02:20:25.868Z,-3.29
2019-02-25T02:24:27.781Z,-3.34
2019-02-25T02:28:29.701Z,-3.29
2019-02-25T02:32:31.627Z,-3.27
2019-02-25T02:36:33.551Z,-3.29
2019-02-25T02:40:35.469Z,-3.33
2019-02-25T02:44:37.408Z,-3.35
2019-02-25T02:48:46.746Z,-3.39
2019-02-25T02:52:48.658Z,-3.43
2019-02-25T02:56:50.593Z,-3.45
2019-02-25T03:00:52.505Z,-3.48
2019-02-25T03:04:55.609Z,-3.50
2019-02-25T03:08:57.529Z,-3.48
2019-02-25T03:12:59.438Z,-3.47
2019-02-25T03:17:03.941Z,-3.45
2019-02-25T03:21:05.916Z,-3.48
2019-02-25T03:25:11.891Z,-3.48
2019-02-25T03:29:13.812Z,-3.53
2019-02-25T03:33:16.115Z,-3.54
2019-02-25T03:37:18.088Z,-3.59
2019-02-25T03:41:20.084Z,-3.62
2019-02-25T03:45:22.189Z,-3.61
2019-02-25T03:49:24.085Z,-3.61
2019-02-25T03:53:26.096Z,-3.63
2019-02-25T03:57:28.006Z,-3.67
2019-02-25T04:01:29.930Z,-3.71
2019-02-25T04:05:32.106Z,-3.72
2019-02-25T04:09:34.007Z,-3.72
2019-02-25T04:13:35.925Z,-3.76
2019-02-25T04:17:37.841Z,-3.83
2019-02-25T04:21:39.765Z,-3.84
2019-02-25T04:25:41.680Z,-3.80
2019-02-25T04:29:43.669Z,-3.80
2019-02-25T04:33:45.578Z,-3.78
2019-02-25T04:37:47.493Z,-3.83
2019-02-25T04:41:49.410Z,-3.84
2019-02-25T04:45:51.384Z,-3.83
2019-02-25T04:49:53.300Z,-3.84
2019-02-25T04:53:55.251Z,-3.87
2019-02-25T04:57:57.242Z,-3.88
2019-02-25T05:01:59.198Z,-3.89
2019-02-25T05:06:03.282Z,-3.84
2019-02-25T05:10:11.800Z,-3.86
2019-02-25T05:14:13.706Z,-3.91
2019-02-25T05:18:16.092Z,-3.90
2019-02-25T05:22:18.053Z,-3.89
2019-02-25T05:26:19.965Z,-3.91
2019-02-25T05:30:21.867Z,-3.87
2019-02-25T05:34:23.780Z,-3.93
2019-02-25T05:38:25.703Z,-3.97
2019-02-25T05:42:27.618Z,-3.99
2019-02-25T05:46:29.537Z,-4.01
2019-02-25T05:50:31.551Z,-3.94
2019-02-25T05:54:33.492Z,-3.96
2019-02-25T05:58:35.415Z,-3.98
2019-02-25T06:02:37.362Z,-3.97
2019-02-25T06:06:39.257Z,-3.96
2019-02-25T06:10:41.347Z,-4.02
2019-02-25T06:14:43.250Z,-4.01
2019-02-25T06:18:45.190Z,-3.98
2019-02-25T06:22:47.178Z,-3.95
2019-02-25T06:26:49.095Z,-3.97
2019-02-25T06:30:51.012Z,-4.00
2019-02-25T06:34:52.914Z,-4.00
2019-02-25T06:38:54.837Z,-3.95
2019-02-25T06:42:56.760Z,-3.91
2019-02-25T06:46:58.766Z,-3.83
2019-02-25T06:51:00.683Z,-3.81
2019-02-25T06:55:02.592Z,-3.71
2019-02-25T06:59:04.595Z,-3.58
2019-02-25T07:03:06.518Z,-3.57
2019-02-25T07:07:19.019Z,-3.61
2019-02-25T07:11:22.580Z,-3.50
2019-02-25T07:15:35.140Z,-3.44
2019-02-25T07:19:38.694Z,-3.39
2019-02-25T07:23:48.045Z,-3.25
2019-02-25T07:28:06.141Z,-3.20
2019-02-25T07:32:25.950Z,-3.03
2019-02-25T07:36:44.517Z,-2.92
2019-02-25T07:40:51.009Z,-2.81
2019-02-25T07:44:58.684Z,-2.69
2019-02-25T07:49:05.259Z,-2.56
2019-02-25T07:53:24.688Z,-2.44
2019-02-25T07:57:36.819Z,-2.33
2019-02-25T08:01:46.108Z,-2.14
2019-02-25T08:05:52.386Z,-1.88
2019-02-25T08:09:55.969Z,-1.74
2019-02-25T08:14:05.565Z,-1.52
2019-02-25T08:18:09.124Z,-1.36
2019-02-25T08:22:28.743Z,-1.15
2019-02-25T08:26:32.298Z,-0.88
2019-02-25T08:30:38.815Z,-0.63
2019-02-25T08:34:47.811Z,-0.38
2019-02-25T08:39:07.569Z,-0.14
2019-02-25T08:43:18.292Z,0.08
2019-02-25T08:47:21.847Z,0.40
2019-02-25T08:51:23.738Z,0.78
2019-02-25T08:55:25.651Z,1.12
2019-02-25T08:59:27.637Z,1.43
2019-02-25T09:03:29.545Z,1.76
2019-02-25T09:07:31.479Z,2.04
2019-02-25T09:11:33.379Z,2.31
2019-02-25T09:15:35.325Z,2.61
2019-02-25T09:19:37.243Z,2.97
2019-02-25T09:23:39.149Z,3.25
2019-02-25T09:27:41.219Z,3.60
2019-02-25T09:31:43.130Z,3.93
2019-02-25T09:35:45.039Z,4.24
2019-02-25T09:39:46.972Z,4.65
2019-02-25T09:43:48.871Z,5.10
2019-02-25T09:47:50.803Z,5.53
2019-02-25T09:51:52.696Z,6.10
2019-02-25T09:55:54.630Z,6.52
2019-02-25T09:59:56.530Z,6.92
2019-02-25T10:03:58.441Z,7.30
2019-02-25T10:08:00.350Z,7.78
2019-02-25T10:12:02.252Z,8.18
2019-02-25T10:16:06.301Z,8.65
2019-02-25T10:20:10.316Z,9.05
2019-02-25T10:24:12.226Z,9.49
2019-02-25T10:28:14.234Z,9.82
2019-02-25T10:32:17.042Z,10.23
2019-02-25T10:36:19.000Z,10.63
2019-02-25T10:40:24.408Z,10.96
2019-02-25T10:44:24.585Z,11.13
2019-02-25T10:48:26.503Z,11.44
2019-02-25T10:52:28.412Z,11.71
2019-02-25T10:56:37.582Z,11.95
2019-02-25T11:00:41.601Z,12.24
2019-02-25T11:04:43.364Z,12.38
2019-02-25T11:08:46.930Z,12.58
2019-02-25T11:12:48.908Z,12.94
2019-02-25T11:16:52.217Z,13.33
2019-02-25T11:20:54.224Z,13.62
2019-02-25T11:24:57.707Z,13.69
2019-02-25T11:29:05.610Z,13.87
2019-02-25T11:33:07.892Z,14.02
2019-02-25T11:37:09.794Z,13.89
2019-02-25T11:41:11.711Z,13.88
2019-02-25T11:45:18.117Z,14.34
2019-02-25T11:49:20.116Z,14.60
2019-02-25T11:53:22.089Z,14.58
2019-02-25T11:57:24.089Z,14.63
2019-02-25T12:01:26.001Z,14.54
2019-02-25T12:05:27.940Z,14.96
2019-02-25T12:09:29.860Z,15.52
2019-02-25T12:13:31.801Z,15.80
2019-02-25T12:17:33.787Z,16.11
2019-02-25T12:21:35.703Z,16.40
2019-02-25T12:25:37.620Z,16.71
2019-02-25T12:29:40.549Z,16.71
2019-02-25T12:33:42.454Z,16.92
2019-02-25T12:37:44.390Z,17.12
2019-02-25T12:41:46.311Z,17.21
2019-02-25T12:45:48.233Z,17.62
2019-02-25T12:49:50.150Z,17.88
2019-02-25T12:53:53.144Z,18.30
2019-02-25T12:57:55.064Z,18.63
2019-02-25T13:01:56.990Z,18.89
2019-02-25T13:05:58.961Z,18.79
2019-02-25T13:10:05.130Z,18.53
2019-02-25T13:14:07.218Z,18.45
2019-02-25T13:18:09.139Z,18.04
2019-02-25T13:22:11.061Z,18.00
2019-02-25T13:26:13.003Z,18.12
2019-02-25T13:30:17.672Z,18.29
2019-02-25T13:34:19.576Z,18.42
2019-02-25T13:38:21.518Z,18.43
2019-02-25T13:42:23.427Z,18.59
2019-02-25T13:46:25.391Z,18.83
2019-02-25T13:50:28.148Z,18.75
2019-02-25T13:54:30.054Z,18.92
2019-02-25T13:58:34.676Z,18.95
2019-02-25T14:02:36.632Z,18.57
2019-02-25T14:06:38.557Z,18.86
2019-02-25T14:10:40.550Z,18.85
2019-02-25T14:14:42.486Z,18.72
2019-02-25T14:18:44.420Z,18.70
2019-02-25T14:22:46.341Z,18.71
2019-02-25T14:26:48.272Z,18.86
2019-02-25T14:30:51.653Z,18.98
2019-02-25T14:34:53.580Z,19.04
2019-02-25T14:38:56.380Z,18.88
2019-02-25T14:43:02.277Z,19.03
2019-02-25T14:47:05.455Z,19.29
2019-02-25T14:51:08.782Z,19.44
2019-02-25T14:55:11.782Z,19.24
2019-02-25T14:59:15.599Z,18.63
2019-02-25T15:03:20.069Z,18.02
2019-02-25T15:07:22.727Z,17.34
2019-02-25T15:11:26.267Z,17.03
2019-02-25T15:15:28.211Z,16.81
2019-02-25T15:19:32.519Z,16.60
2019-02-25T15:23:33.804Z,16.21
2019-02-25T15:27:35.807Z,15.53
2019-02-25T15:31:44.387Z,15.08
2019-02-25T15:35:47.866Z,14.58
2019-02-25T15:39:50.741Z,14.13
2019-02-25T15:43:53.109Z,13.73
2019-02-25T15:47:55.537Z,13.35
2019-02-25T15:51:58.692Z,12.98
2019-02-25T15:56:01.505Z,12.58
2019-02-25T16:00:06.443Z,12.16
2019-02-25T16:04:11.765Z,11.86
2019-02-25T16:08:17.239Z,11.57
2019-02-25T16:12:19.126Z,11.28
2019-02-25T16:16:21.080Z,11.03
2019-02-25T16:20:25.519Z,10.83
2019-02-25T16:24:27.588Z,10.62
2019-02-25T16:28:37.838Z,10.36
2019-02-25T16:32:42.183Z,10.09
2019-02-25T16:36:49.662Z,9.86
2019-02-25T16:40:50.297Z,9.59
2019-02-25T16:44:52.409Z,9.35
2019-02-25T16:48:55.131Z,9.09
2019-02-25T16:52:58.029Z,8.86
2019-02-25T16:57:00.002Z,8.66
2019-02-25T17:01:07.544Z,8.41
2019-02-25T17:05:10.624Z,8.13
2019-02-25T17:09:20.431Z,7.96
2019-02-25T17:13:22.509Z,7.74
2019-02-25T17:17:24.868Z,7.59
2019-02-25T17:21:28.416Z,7.41
2019-02-25T17:25:31.726Z,7.25
2019-02-25T17:29:35.855Z,7.09
2019-02-25T17:33:38.024Z,6.91
2019-02-25T17:37:40.400Z,6.76
2019-02-25T17:41:44.792Z,6.61
2019-02-25T17:45:48.215Z,6.46
2019-02-25T17:49:51.736Z,6.30
2019-02-25T17:53:54.843Z,6.16
2019-02-25T17:57:58.699Z,5.98
2019-02-25T18:02:02.326Z,5.81
2019-02-25T18:06:08.469Z,5.66
2019-02-25T18:10:13.384Z,5.55
2019-02-25T18:14:17.534Z,5.42
2019-02-25T18:18:22.238Z,5.25
2019-02-25T18:22:24.803Z,5.15
2019-02-25T18:26:28.567Z,5.04
2019-02-25T18:30:32.890Z,4.91
2019-02-25T18:34:36.558Z,4.83
2019-02-25T18:38:38.746Z,4.75
2019-02-25T18:42:42.974Z,4.59
2019-02-25T18:46:45.988Z,4.47
2019-02-25T18:50:50.175Z,4.35
2019-02-25T18:54:51.652Z,4.31
2019-02-25T18:58:58.279Z,4.20
2019-02-25T19:02:58.292Z,4.11
2019-02-25T19:07:05.762Z,4.01
2019-02-25T19:11:08.031Z,3.90
2019-02-25T19:15:11.518Z,3.80
2019-02-25T19:19:14.654Z,3.72
2019-02-25T19:23:17.408Z,3.68
2019-02-25T19:27:19.456Z,3.62
2019-02-25T19:31:21.348Z,3.57
2019-02-25T19:35:25.850Z,3.43
2019-02-25T19:39:27.042Z,3.33
2019-02-25T19:43:29.001Z,3.29
2019-02-25T19:47:31.594Z,3.22
2019-02-25T19:51:34.519Z,3.17
2019-02-25T19:55:40.473Z,3.09
2019-02-25T19:59:40.072Z,2.98
2019-02-25T20:03:43.357Z,2.87
2019-02-25T20:07:45.854Z,2.85
2019-02-25T20:11:47.748Z,2.82
2019-02-25T20:15:51.145Z,2.75
2019-02-25T20:19:53.315Z,2.69
2019-02-25T20:23:55.980Z,2.64
2019-02-25T20:27:59.847Z,2.60
2019-02-25T20:32:04.080Z,2.60
2019-02-25T20:36:06.199Z,2.50
2019-02-25T20:40:11.491Z,2.39
2019-02-25T20:44:13.410Z,2.38
2019-02-25T20:48:16.541Z,2.36
2019-02-25T20:52:19.802Z,2.27
2019-02-25T20:56:22.392Z,2.20
2019-02-25T21:00:26.543Z,2.18
2019-02-25T21:04:28.458Z,2.11
2019-02-25T21:08:30.362Z,2.04
2019-02-25T21:12:32.274Z,1.98
2019-02-25T21:16:35.277Z,1.88
2019-02-25T21:20:37.181Z,1.44
2019-02-25T21:24:39.085Z,1.81
2019-02-25T21:28:42.748Z,1.69
2019-02-25T21:32:45.642Z,1.65
2019-02-25T21:36:48.290Z,1.61
2019-02-25T21:40:52.661Z,1.51
2019-02-25T21:44:56.616Z,1.44
2019-02-25T21:49:01.563Z,1.38
2019-02-25T21:53:06.987Z,1.39
2019-02-25T21:57:09.727Z,1.36
2019-02-25T22:01:11.727Z,1.33
2019-02-25T22:05:14.357Z,1.30
2019-02-25T22:09:22.684Z,1.30
2019-02-25T22:13:22.227Z,1.25
2019-02-25T22:17:24.674Z,1.14
2019-02-25T22:21:26.728Z,1.19
2019-02-25T22:25:29.611Z,1.17
2019-02-25T22:29:31.588Z,1.17
2019-02-25T22:33:33.490Z,1.15
2019-02-25T22:37:35.385Z,1.11
2019-02-25T22:41:37.304Z,1.09
2019-02-25T22:45:39.714Z,1.07
2019-02-25T22:49:42.793Z,1.07
2019-02-25T22:53:44.697Z,1.04
2019-02-25T22:57:49.110Z,0.99
2019-02-25T23:01:52.144Z,0.91
2019-02-25T23:05:55.228Z,0.83
2019-02-25T23:09:58.112Z,0.79
2019-02-25T23:14:00.023Z,0.78
2019-02-25T23:18:09.982Z,0.73
2019-02-25T23:22:09.116Z,0.69
2019-02-25T23:26:12.611Z,0.63
2019-02-25T23:30:15.967Z,0.66
2019-02-25T23:34:18.417Z,0.53
2019-02-25T23:38:21.478Z,0.47
2019-02-25T23:42:23.379Z,0.42
2019-02-25T23:46:27.370Z,0.41
2019-02-25T23:50:29.758Z,0.41
2019-02-25T23:54:32.497Z,0.39
2019-02-25T23:58:38.341Z,0.36
